Time;durP1;ratioP1;P1;durP2;ratioP2;P2;SDS_P1;SDS_P2;PMS_P1;PMS_P2;Temp;Humidity;BMP_temperature;BMP_pressure;BME280_temperature;BME280_humidity;BME280_pressure;Samples;Min_cycle;Max_cycle;Signal;HPM_P1;HPM_P2
2022/01/16 05:00:25;;;;;;;31.75;18.20;;;;;;;-3.01;100.00;95712.34;6106634;23;20103;31
2022/01/16 05:02:51;;;;;;;29.02;17.70;;;;;;;-3.14;100.00;95716.31;4897673;29;20548;-75
2022/01/16 05:05:16;;;;;;;35.25;18.10;;;;;;;-3.21;100.00;95713.25;4894424;29;20032;-74
2022/01/16 05:07:42;;;;;;;34.25;17.85;;;;;;;-3.13;100.00;95708.69;4878693;29;20505;-74
2022/01/16 05:10:08;;;;;;;29.40;16.95;;;;;;;-3.11;100.00;95691.69;4895485;29;20478;-74
2022/01/16 05:12:36;;;;;;;31.48;18.98;;;;;;;-3.06;100.00;95699.09;4894677;29;20184;-74
2022/01/16 05:17:48;;;;;;;31.25;18.40;;;;;;;-2.92;100.00;95702.63;4896969;29;20049;-75
2022/01/16 05:20:14;;;;;;;32.40;19.40;;;;;;;-2.95;100.00;95697.69;4910838;29;20043;-74
2022/01/16 05:22:40;;;;;;;31.20;19.98;;;;;;;-2.95;100.00;95695.16;4909914;29;20029;-74
2022/01/16 05:25:07;;;;;;;27.85;18.23;;;;;;;-2.84;100.00;95704.78;4909920;29;20048;-75
2022/01/16 05:27:34;;;;;;;35.42;20.85;;;;;;;-2.83;100.00;95699.69;4895316;29;20033;-75
2022/01/16 05:29:59;;;;;;;33.92;18.88;;;;;;;-2.79;100.00;95698.63;4877710;29;20425;-75
2022/01/16 05:32:24;;;;;;;29.38;19.95;;;;;;;-2.89;100.00;95702.47;4910656;29;20035;-75
2022/01/16 05:34:50;;;;;;;33.15;21.10;;;;;;;-2.78;100.00;95702.81;4893299;29;20036;-75
2022/01/16 05:37:15;;;;;;;30.35;20.48;;;;;;;-2.70;100.00;95710.06;4910807;29;20035;-75
2022/01/16 05:39:44;;;;;;;30.92;19.85;;;;;;;-2.60;100.00;95713.75;4893738;29;20522;-74
2022/01/16 05:42:11;;;;;;;35.25;20.23;;;;;;;-2.61;100.00;95711.31;4893905;29;20402;-75
2022/01/16 05:44:36;;;;;;;33.25;20.23;;;;;;;-2.66;100.00;95712.34;4910530;29;20052;-75
2022/01/16 05:47:04;;;;;;;34.33;22.23;;;;;;;-2.64;100.00;95716.53;4908929;29;20491;-75
2022/01/16 05:49:30;;;;;;;33.88;19.95;;;;;;;-2.51;100.00;95712.53;4894721;29;20036;-75
2022/01/16 05:51:55;;;;;;;35.55;21.95;;;;;;;-2.50;100.00;95714.16;4893976;29;20033;-75
2022/01/16 05:54:20;;;;;;;36.53;21.98;;;;;;;-2.48;100.00;95719.97;4896193;29;20482;-75
2022/01/16 05:56:46;;;;;;;38.35;24.10;;;;;;;-2.50;100.00;95721.75;4908915;29;20021;-75
2022/01/16 05:59:11;;;;;;;37.17;22.65;;;;;;;-2.40;100.00;95722.94;4909734;29;20039;-75
2022/01/16 06:01:37;;;;;;;42.70;25.08;;;;;;;-2.46;100.00;95719.00;4887205;29;20430;-75
2022/01/16 06:04:03;;;;;;;43.78;26.17;;;;;;;-2.41;100.00;95723.88;4924980;29;21040;-75
2022/01/16 06:06:28;;;;;;;34.08;23.20;;;;;;;-2.33;100.00;95725.13;4914601;29;20091;-75
2022/01/16 06:08:54;;;;;;;39.50;23.48;;;;;;;-2.31;100.00;95725.06;4895043;29;20029;-75
2022/01/16 06:11:19;;;;;;;38.90;23.58;;;;;;;-2.36;100.00;95727.00;4877126;29;20096;-74
2022/01/16 06:13:45;;;;;;;35.58;22.95;;;;;;;-2.20;100.00;95731.25;4908313;29;20033;-75
2022/01/16 06:16:11;;;;;;;44.67;27.77;;;;;;;-2.28;100.00;95735.06;4910308;29;20035;-75
2022/01/16 06:18:36;;;;;;;45.80;27.20;;;;;;;-2.20;100.00;95731.25;4893363;29;20450;-75
2022/01/16 06:21:02;;;;;;;42.20;26.10;;;;;;;-2.18;100.00;95731.16;4908686;29;20033;-75
2022/01/16 06:23:27;;;;;;;48.03;30.80;;;;;;;-2.20;100.00;95727.88;4909576;29;20491;-75
2022/01/16 06:25:54;;;;;;;41.47;26.42;;;;;;;-2.28;100.00;95730.78;4908207;29;20033;-75
2022/01/16 06:28:24;;;;;;;38.60;24.45;;;;;;;-2.22;100.00;95733.03;4909496;29;20047;-75
2022/01/16 06:30:50;;;;;;;47.63;25.42;;;;;;;-2.08;100.00;95744.22;4892117;29;20096;-74
2022/01/16 06:33:16;;;;;;;63.50;25.10;;;;;;;-2.03;100.00;95748.19;4909851;29;20037;-73
2022/01/16 06:35:42;;;;;;;53.40;23.15;;;;;;;-2.00;100.00;95750.56;4908361;29;20031;-74
2022/01/16 06:38:07;;;;;;;38.63;23.35;;;;;;;-2.05;100.00;95759.28;4893250;29;20604;-74
2022/01/16 06:40:32;;;;;;;41.58;22.80;;;;;;;-1.91;100.00;95757.72;4909103;29;20044;-74
2022/01/16 06:42:58;;;;;;;41.35;23.80;;;;;;;-1.89;100.00;95760.16;4893833;29;20055;-74
2022/01/16 06:45:24;;;;;;;39.45;23.45;;;;;;;-1.87;100.00;95756.69;4909459;29;20035;-74
2022/01/16 06:47:51;;;;;;;39.97;23.15;;;;;;;-1.77;100.00;95762.13;4907882;29;20501;-74
2022/01/16 06:50:17;;;;;;;42.63;24.60;;;;;;;-1.80;100.00;95767.34;4909324;29;20028;-75
2022/01/16 06:52:43;;;;;;;38.65;23.60;;;;;;;-1.71;100.00;95767.69;4907784;29;20024;-75
2022/01/16 06:55:09;;;;;;;36.97;22.65;;;;;;;-1.62;100.00;95762.16;4909171;29;20028;-75
2022/01/16 06:57:34;;;;;;;38.85;23.73;;;;;;;-1.62;100.00;95761.34;4908086;29;20028;-74
2022/01/16 06:59:59;;;;;;;40.00;23.65;;;;;;;-1.71;100.00;95766.88;4893665;29;20028;-74
2022/01/16 07:02:25;;;;;;;38.70;24.42;;;;;;;-1.69;100.00;95765.91;4894489;29;20109;-73
2022/01/16 07:04:50;;;;;;;40.85;25.50;;;;;;;-1.51;100.00;95773.50;4893143;29;20033;-73
2022/01/16 07:07:16;;;;;;;38.78;23.05;;;;;;;-1.46;100.00;95777.44;4908654;29;20072;-76
2022/01/16 07:09:41;;;;;;;39.58;23.02;;;;;;;-1.33;100.00;95790.31;4907572;29;20034;-76
2022/01/16 07:12:07;;;;;;;35.28;23.75;;;;;;;-1.29;100.00;95791.81;4908455;29;20080;-76
2022/01/16 07:14:33;;;;;;;38.85;22.08;;;;;;;-1.46;100.00;95786.75;4907666;29;20044;-76
2022/01/16 07:16:58;;;;;;;42.95;22.98;;;;;;;-1.26;100.00;95795.03;4894484;29;20043;-76
2022/01/16 07:19:24;;;;;;;38.15;23.83;;;;;;;-1.14;100.00;95791.00;4908055;29;20454;-76
2022/01/16 07:21:49;;;;;;;34.53;23.08;;;;;;;-1.13;100.00;95790.94;4907089;29;20474;-76
2022/01/16 07:24:15;;;;;;;35.60;22.52;;;;;;;-1.01;100.00;95794.56;4894312;29;20035;-76
2022/01/16 07:26:42;;;;;;;29.17;20.02;;;;;;;-1.09;100.00;95791.59;4907098;29;20507;-77
2022/01/16 07:29:07;;;;;;;33.80;22.15;;;;;;;-1.02;100.00;95781.91;4892600;29;20394;-76
2022/01/16 07:31:33;;;;;;;32.17;20.85;;;;;;;-0.94;100.00;95788.25;4892469;29;20029;-74
2022/01/16 07:33:59;;;;;;;28.58;19.75;;;;;;;-0.91;100.00;95795.72;4894278;29;20028;-74
2022/01/16 07:36:24;;;;;;;33.45;21.05;;;;;;;-0.84;100.00;95802.13;4893111;29;20029;-73
2022/01/16 07:38:50;;;;;;;34.97;21.30;;;;;;;-0.80;100.00;95797.69;4907748;29;20028;-77
2022/01/16 07:41:15;;;;;;;29.88;19.65;;;;;;;-0.85;100.00;95807.28;4893599;29;20068;-73
2022/01/16 07:43:41;;;;;;;32.40;20.00;;;;;;;-1.00;100.00;95806.38;4907403;29;20032;-76
2022/01/16 07:46:06;;;;;;;32.22;21.10;;;;;;;-0.80;100.00;95811.22;4908371;29;20036;-76
2022/01/16 07:48:32;;;;;;;30.20;19.58;;;;;;;-0.68;100.00;95808.03;4906448;29;20036;-76
2022/01/16 07:50:57;;;;;;;34.10;20.27;;;;;;;-0.56;100.00;95806.56;4893613;29;20032;-75
2022/01/16 07:53:22;;;;;;;25.27;18.17;;;;;;;-0.61;100.00;95809.31;4906645;29;20036;-76
2022/01/16 07:55:48;;;;;;;31.48;20.92;;;;;;;-0.60;100.00;95817.78;4908156;29;20036;-73
2022/01/16 07:58:14;;;;;;;33.22;20.00;;;;;;;-0.71;100.00;95823.47;4891296;29;20040;-75
2022/01/16 08:00:41;;;;;;;30.25;19.45;;;;;;;-0.57;100.00;95825.25;4892206;29;20056;-73
2022/01/16 08:03:06;;;;;;;27.20;18.17;;;;;;;-0.47;100.00;95823.03;4893669;29;20037;-75
2022/01/16 08:05:34;;;;;;;28.38;18.63;;;;;;;-0.42;100.00;95823.63;4906516;29;20036;-75
2022/01/16 08:07:59;;;;;;;31.25;19.73;;;;;;;-0.37;100.00;95824.19;4908141;29;20084;-75
2022/01/16 08:10:25;;;;;;;27.42;19.75;;;;;;;-0.35;100.00;95824.94;4906232;29;20016;-75
2022/01/16 08:12:50;;;;;;;22.35;15.73;;;;;;;-0.52;100.00;95812.28;4893256;29;20032;-75
2022/01/16 08:15:16;;;;;;;29.67;19.45;;;;;;;-0.25;100.00;95806.50;4906821;29;20035;-73
2022/01/16 08:17:41;;;;;;;27.08;18.27;;;;;;;-0.14;100.00;95822.03;4907527;29;20068;-75
2022/01/16 08:20:08;;;;;;;23.95;17.38;;;;;;;-0.16;100.00;95817.94;4907627;29;20033;-76
2022/01/16 08:22:35;;;;;;;28.70;19.15;;;;;;;0.03;100.00;95822.81;4906037;29;20047;-76
2022/01/16 08:25:00;;;;;;;30.13;19.33;;;;;;;0.02;100.00;95819.44;4907877;29;20036;-75
2022/01/16 08:27:26;;;;;;;27.73;20.00;;;;;;;0.12;100.00;95823.13;4890368;29;20032;-76
2022/01/16 08:29:51;;;;;;;31.52;20.20;;;;;;;0.01;100.00;95815.25;4907823;29;20076;-76
2022/01/16 08:32:17;;;;;;;22.75;15.70;;;;;;;0.16;100.00;95806.75;4874453;29;20035;-76
2022/01/16 08:34:43;;;;;;;20.90;16.10;;;;;;;0.09;100.00;95810.56;4906744;29;20063;-76
2022/01/16 08:37:08;;;;;;;24.13;17.90;;;;;;;0.41;100.00;95804.47;4892853;29;20474;-77
2022/01/16 08:39:34;;;;;;;25.48;18.10;;;;;;;0.36;100.00;95803.88;4906244;29;20048;-76
2022/01/16 08:41:59;;;;;;;22.05;17.35;;;;;;;0.58;100.00;95797.56;4907645;29;20069;-74
2022/01/16 08:44:24;;;;;;;23.45;17.80;;;;;;;0.49;100.00;95798.91;4905864;29;20485;-75
2022/01/16 08:46:51;;;;;;;22.27;16.38;;;;;;;0.66;100.00;95795.38;4907723;29;20033;-75
2022/01/16 08:49:16;;;;;;;24.90;16.60;;;;;;;0.72;100.00;95800.94;4891466;29;20051;-74
2022/01/16 08:51:42;;;;;;;21.77;15.80;;;;;;;0.83;100.00;95797.75;4907303;29;20510;-75
2022/01/16 08:54:07;;;;;;;21.60;15.15;;;;;;;0.85;100.00;95791.66;4892307;29;20031;-75
2022/01/16 08:56:33;;;;;;;17.20;14.75;;;;;;;0.72;100.00;95789.91;4906881;29;20570;-75
2022/01/16 08:58:59;;;;;;;25.40;15.80;;;;;;;0.85;100.00;95803.56;4907175;29;20055;-76
2022/01/16 09:01:24;;;;;;;17.52;13.48;;;;;;;1.02;99.51;95799.13;4905870;29;20040;-76
2022/01/16 09:03:50;;;;;;;17.00;14.50;;;;;;;1.02;100.00;95788.09;4875790;29;20450;-76
2022/01/16 09:06:16;;;;;;;19.23;13.02;;;;;;;0.97;99.12;95793.47;4874466;29;20033;-76
2022/01/16 09:08:42;;;;;;;22.00;15.43;;;;;;;1.13;99.63;95783.16;4906999;29;20084;-76
2022/01/16 09:11:07;;;;;;;16.58;14.07;;;;;;;0.90;100.00;95768.44;4905581;29;20462;-75
2022/01/16 09:13:33;;;;;;;16.20;13.55;;;;;;;0.93;100.00;95778.47;4892925;29;20422;-76
2022/01/16 09:15:59;;;;;;;15.93;12.80;;;;;;;0.82;99.76;95774.00;4906862;29;20406;-76
2022/01/16 09:18:25;;;;;;;18.27;13.20;;;;;;;0.52;99.44;95774.06;4906377;29;20024;-76
2022/01/16 09:20:51;;;;;;;16.17;12.90;;;;;;;1.71;97.92;95767.59;4892872;29;21212;-76
2022/01/16 09:23:16;;;;;;;13.15;11.63;;;;;;;9.50;57.24;95755.47;4895824;29;20020;-74
2022/01/16 09:25:42;;;;;;;11.98;10.43;;;;;;;11.26;48.55;95741.56;4905144;29;20404;-74
2022/01/16 09:28:07;;;;;;;14.35;10.52;;;;;;;3.87;68.71;95751.16;4892745;29;20020;-74
2022/01/16 09:30:34;;;;;;;11.60;10.55;;;;;;;9.28;52.33;95730.78;4906748;29;20032;-73
2022/01/16 09:33:00;;;;;;;11.20;9.88;;;;;;;12.23;45.20;95741.03;4909437;29;20426;-76
2022/01/16 09:35:26;;;;;;;12.63;11.35;;;;;;;11.73;45.30;95736.72;4910255;29;20016;-76
2022/01/16 09:37:52;;;;;;;11.40;10.20;;;;;;;7.31;58.74;95738.31;4892523;29;20391;-76
2022/01/16 09:40:19;;;;;;;10.57;9.68;;;;;;;12.15;45.32;95719.28;4906960;29;20044;-76
2022/01/16 09:42:45;;;;;;;9.60;8.70;;;;;;;11.88;44.91;95722.16;4894748;29;20029;-77
2022/01/16 09:45:14;;;;;;;8.63;7.90;;;;;;;11.88;42.72;95722.16;4910143;29;20020;-74
2022/01/16 09:47:40;;;;;;;9.68;8.85;;;;;;;11.55;43.76;95712.66;4898107;29;20582;-76
2022/01/16 09:50:07;;;;;;;9.30;7.97;;;;;;;11.74;43.45;95704.63;4908507;29;20067;-76
2022/01/16 09:52:36;;;;;;;7.70;7.10;;;;;;;13.19;41.13;95693.34;4907544;29;20032;-77
2022/01/16 09:55:01;;;;;;;9.73;8.82;;;;;;;9.88;49.31;95713.84;4903000;29;20044;-76
2022/01/16 09:57:27;;;;;;;8.90;8.13;;;;;;;11.89;44.08;95697.00;4938550;28;20024;-76
2022/01/16 09:59:52;;;;;;;9.63;7.80;;;;;;;12.49;42.13;95689.75;4918934;29;20035;-74
2022/01/16 10:02:18;;;;;;;8.60;7.80;;;;;;;12.64;41.27;95695.91;4928804;29;20044;-74
2022/01/16 10:04:43;;;;;;;9.48;8.57;;;;;;;10.46;44.62;95692.66;4930228;29;20035;-76
2022/01/16 10:07:14;;;;;;;9.75;8.65;;;;;;;12.02;43.53;95681.78;4928650;29;20409;-77
2022/01/16 10:09:43;;;;;;;10.13;9.23;;;;;;;10.86;45.11;95679.13;4931780;29;20118;-76
2022/01/16 10:12:17;;;;;;;10.23;9.32;;;;;;;11.84;43.54;95681.94;4931862;29;20076;-76
2022/01/16 10:14:49;;;;;;;9.18;8.45;;;;;;;12.59;41.67;95677.38;4946292;29;20144;-73
2022/01/16 10:17:15;;;;;;;9.65;7.95;;;;;;;12.74;41.89;95673.13;4932183;29;20055;-74
2022/01/16 10:19:40;;;;;;;13.55;8.25;;;;;;;12.08;41.52;95675.94;4931329;29;20052;-74
2022/01/16 10:22:09;;;;;;;9.85;8.35;;;;;;;12.86;42.21;95666.59;4932861;29;20409;-73
2022/01/16 10:24:35;;;;;;;9.40;8.43;;;;;;;12.75;40.93;95659.16;4914411;29;20032;-74
2022/01/16 10:27:10;;;;;;;9.50;8.70;;;;;;;12.86;41.05;95671.81;4932202;29;20148;-76
2022/01/16 10:29:38;;;;;;;10.20;9.30;;;;;;;11.62;43.29;95666.94;4930451;29;20039;-76
2022/01/16 10:32:14;;;;;;;11.60;10.50;;;;;;;10.53;43.90;95670.38;4915161;29;20054;-76
2022/01/16 10:34:40;;;;;;;14.70;10.32;;;;;;;11.32;42.15;95665.72;4921354;29;20055;-73
2022/01/16 10:37:19;;;;;;;10.82;9.82;;;;;;;10.53;43.63;95662.63;4918825;29;20119;-73
2022/01/16 10:39:56;;;;;;;11.30;10.30;;;;;;;8.06;50.92;95667.28;4911627;29;20461;-76
2022/01/16 10:42:21;;;;;;;11.32;10.23;;;;;;;5.68;59.79;95667.09;4903700;29;20032;-73
2022/01/16 10:44:57;;;;;;;12.90;10.38;;;;;;;5.71;60.28;95665.09;4912428;29;20024;-73
2022/01/16 10:47:32;;;;;;;12.55;10.52;;;;;;;5.91;61.28;95658.34;4912249;29;20075;-74
2022/01/16 10:50:38;;;;;;;12.25;10.82;;;;;;;5.70;63.81;95648.03;4908071;29;20506;-77
2022/01/16 10:53:04;;;;;;;13.52;10.35;;;;;;;6.21;61.40;95652.47;4912069;29;20046;-76
2022/01/16 10:55:47;;;;;;;14.80;11.23;;;;;;;6.29;59.42;95644.94;4911012;29;20024;-76
2022/01/16 10:58:15;;;;;;;12.05;10.77;;;;;;;5.29;61.06;95642.84;4919635;29;20487;-77
2022/01/16 11:00:53;;;;;;;13.93;12.02;;;;;;;4.84;66.33;95638.72;4924729;29;20080;-74
2022/01/16 11:03:20;;;;;;;16.90;14.10;;;;;;;4.95;64.96;95636.94;4908835;29;20131;-74
2022/01/16 11:05:46;;;;;;;13.95;11.73;;;;;;;5.30;62.51;95631.59;4893091;29;20505;-74
2022/01/16 11:08:14;;;;;;;14.50;11.30;;;;;;;4.73;66.44;95632.69;4920000;29;20047;-74
2022/01/16 11:10:45;;;;;;;19.95;12.20;;;;;;;5.12;64.36;95633.06;4936572;29;20139;-74
2022/01/16 11:13:17;;;;;;;15.43;12.85;;;;;;;4.67;66.18;95632.34;4919316;29;20115;-74
2022/01/16 11:15:45;;;;;;;13.73;10.65;;;;;;;4.33;69.72;95623.84;4918095;29;20031;-74
2022/01/16 11:18:11;;;;;;;12.77;10.70;;;;;;;3.73;69.61;95619.78;4932724;28;20059;-74
2022/01/16 11:20:38;;;;;;;17.20;11.15;;;;;;;4.48;67.10;95637.25;4910952;29;20028;-74
2022/01/16 11:25:38;;;;;;;14.75;10.60;;;;;;;5.08;66.57;95624.78;4927132;29;20033;-75
2022/01/16 11:28:05;;;;;;;11.83;10.27;;;;;;;4.49;67.54;95616.63;4909447;29;20084;-75
2022/01/16 11:30:33;;;;;;;16.52;13.20;;;;;;;4.14;65.47;95626.97;4900103;29;20035;-74
2022/01/16 11:32:58;;;;;;;16.80;11.82;;;;;;;4.01;72.84;95623.72;4925625;29;20051;-76
2022/01/16 11:35:29;;;;;;;16.08;12.10;;;;;;;4.28;71.12;95620.81;4907466;29;20129;-72
2022/01/16 11:37:55;;;;;;;16.25;11.43;;;;;;;3.71;72.24;95616.53;4893214;29;20040;-72
2022/01/16 11:40:38;;;;;;;16.38;11.65;;;;;;;4.02;69.91;95615.06;4909097;29;20043;-74
2022/01/16 11:43:33;;;;;;;15.30;11.38;;;;;;;4.43;69.14;95603.47;4908598;29;20032;-73
2022/01/16 11:46:18;;;;;;;16.90;12.23;;;;;;;4.63;67.42;95600.16;4909855;29;20059;-74
2022/01/16 11:48:49;;;;;;;15.55;11.77;;;;;;;4.68;68.50;95593.75;4910911;29;20036;-74
2022/01/16 11:51:33;;;;;;;14.00;12.18;;;;;;;4.23;67.87;95602.41;4908990;29;20039;-73
2022/01/16 11:53:59;;;;;;;15.95;11.32;;;;;;;4.41;69.17;95584.78;4911169;29;20062;-73
2022/01/16 11:56:42;;;;;;;13.85;12.38;;;;;;;4.31;68.93;95596.69;4911790;29;20063;-73
2022/01/16 11:59:11;;;;;;;13.05;11.10;;;;;;;2.84;74.56;95590.47;4911289;29;20032;-75
2022/01/16 12:01:45;;;;;;;18.40;12.35;;;;;;;3.86;71.43;95580.47;4911896;29;20048;-74
2022/01/16 12:04:29;;;;;;;17.77;12.73;;;;;;;4.26;70.36;95576.53;4909501;29;20777;-73
2022/01/16 12:06:59;;;;;;;16.33;12.80;;;;;;;4.20;71.07;95577.00;4912243;29;20039;-73
2022/01/16 12:09:33;;;;;;;;;;;;;;;4.39;69.89;95579.78;4911848;29;20174;-73
2022/01/16 12:11:59;;;;;;;15.75;11.13;;;;;;;4.29;68.80;95573.75;4909694;29;19937;-73
2022/01/16 12:14:56;;;;;;;15.00;12.77;;;;;;;4.17;71.01;95574.69;4910905;29;20482;-73
2022/01/16 12:17:28;;;;;;;15.07;12.25;;;;;;;4.04;70.06;95571.41;4898477;29;20502;-73
2022/01/16 12:19:57;;;;;;;14.75;10.85;;;;;;;4.47;71.15;95566.38;4912631;29;20407;-73
2022/01/16 12:22:46;;;;;;;15.98;12.68;;;;;;;4.30;72.56;95572.00;4909996;29;20573;-73
2022/01/16 12:25:33;;;;;;;13.48;11.95;;;;;;;4.35;74.21;95569.88;4909340;29;20028;-73
2022/01/16 12:28:04;;;;;;;16.48;12.45;;;;;;;4.41;71.43;95565.09;4911853;29;20068;-73
2022/01/16 12:30:55;;;;;;;15.07;11.43;;;;;;;4.47;70.53;95569.75;4910311;29;20063;-74
2022/01/16 12:33:43;;;;;;;17.52;13.07;;;;;;;4.17;70.96;95561.88;4909899;29;20521;-74
2022/01/16 12:36:19;;;;;;;18.55;14.23;;;;;;;4.43;72.07;95558.09;4910912;29;20176;-74
2022/01/16 12:38:52;;;;;;;17.20;14.30;;;;;;;4.09;70.39;95562.44;4909072;29;20028;-75
2022/01/16 12:41:27;;;;;;;19.33;15.60;;;;;;;3.95;71.41;95561.88;4910453;29;20032;-74
2022/01/16 12:44:05;;;;;;;25.58;18.25;;;;;;;4.10;70.30;95560.69;4911465;29;20128;-75
2022/01/16 12:46:35;;;;;;;20.27;15.18;;;;;;;3.89;71.62;95558.00;4909677;29;20027;-74
2022/01/16 12:49:05;;;;;;;16.38;12.48;;;;;;;4.00;73.06;95559.75;4894698;29;20501;-75
2022/01/16 12:51:34;;;;;;;16.17;12.70;;;;;;;3.78;71.87;95552.06;4908814;29;20126;-74
2022/01/16 12:54:31;;;;;;;16.92;13.00;;;;;;;4.05;72.54;95547.41;4910507;29;20076;-74
2022/01/16 12:56:57;;;;;;;17.85;13.55;;;;;;;4.00;73.16;95544.38;4894713;29;20068;-74
2022/01/16 12:59:27;;;;;;;17.98;13.30;;;;;;;4.12;71.46;95538.31;4909249;29;20469;-74
2022/01/16 13:01:55;;;;;;;16.25;13.70;;;;;;;3.94;72.71;95547.41;4894647;29;20055;-74
2022/01/16 13:04:22;;;;;;;20.98;14.32;;;;;;;3.98;72.66;95548.81;4908700;29;20040;-74
2022/01/16 13:06:47;;;;;;;19.67;14.13;;;;;;;3.72;73.34;95546.44;4910683;29;20082;-74
2022/01/16 13:09:13;;;;;;;17.52;13.52;;;;;;;3.84;74.77;95549.03;4908817;29;20072;-74
2022/01/16 13:11:40;;;;;;;19.27;14.10;;;;;;;3.92;73.75;95544.13;4911698;29;20473;-74
2022/01/16 13:14:12;;;;;;;16.88;14.07;;;;;;;3.98;75.36;95533.44;4893269;29;20047;-74
2022/01/16 13:16:48;;;;;;;21.85;14.02;;;;;;;3.94;74.66;95547.41;4906744;29;20092;-74
2022/01/16 13:19:26;;;;;;;19.05;13.68;;;;;;;3.91;74.75;95551.03;4906939;29;20135;-74
2022/01/16 13:22:11;;;;;;;22.55;15.77;;;;;;;3.80;73.53;95550.19;4910987;29;20028;-74
2022/01/16 13:24:50;;;;;;;18.27;14.45;;;;;;;3.84;75.50;95539.59;4912261;29;20099;-74
2022/01/16 13:27:24;;;;;;;20.80;14.85;;;;;;;3.61;76.46;95543.06;4912623;29;20462;-74
2022/01/16 13:29:52;;;;;;;17.95;13.77;;;;;;;3.86;76.14;95552.28;4911374;29;20047;-74
2022/01/16 13:32:20;;;;;;;20.58;14.65;;;;;;;3.58;76.13;95549.22;4914170;29;20024;-74
2022/01/16 13:34:53;;;;;;;18.35;13.73;;;;;;;3.61;77.07;95551.56;4926956;29;20115;-74
2022/01/16 13:37:27;;;;;;;19.85;14.95;;;;;;;3.47;77.09;95556.06;4912959;29;20514;-74
2022/01/16 13:40:00;;;;;;;19.25;15.27;;;;;;;3.53;77.44;95551.31;4926870;29;20063;-74
2022/01/16 13:43:18;;;;;;;18.23;13.55;;;;;;;3.38;78.50;95543.94;4927910;29;20036;-74
2022/01/16 13:45:35;;;;;;;16.70;13.25;;;;;;;3.36;78.29;95545.81;4909687;29;20153;-74
2022/01/16 13:48:11;;;;;;;22.55;13.73;;;;;;;3.54;77.39;95542.69;4911956;29;20119;-74
2022/01/16 13:50:42;;;;;;;20.92;14.18;;;;;;;3.31;77.99;95546.13;4913013;29;20509;-74
2022/01/16 13:53:13;;;;;;;21.10;15.38;;;;;;;3.36;78.01;95527.88;4913626;29;20051;-72
2022/01/16 13:55:56;;;;;;;25.67;15.57;;;;;;;3.51;77.83;95526.75;4930447;28;20103;-72
2022/01/16 13:58:30;;;;;;;20.17;15.70;;;;;;;3.44;77.14;95523.00;4894661;29;20033;-73
2022/01/16 14:01:01;;;;;;;23.45;17.05;;;;;;;3.43;78.10;95529.06;4892461;29;20414;-73
2022/01/16 14:03:31;;;;;;;22.33;15.50;;;;;;;3.44;78.40;95528.94;4894670;29;20032;-73
2022/01/16 14:06:04;;;;;;;25.42;16.58;;;;;;;3.45;78.29;95530.59;4893500;29;20028;-73
2022/01/16 14:08:39;;;;;;;21.08;14.27;;;;;;;3.44;77.57;95526.38;4893740;29;20029;-73
2022/01/16 14:11:16;;;;;;;21.70;15.55;;;;;;;3.54;77.25;95524.78;4909380;29;20057;-73
2022/01/16 14:13:59;;;;;;;25.05;16.30;;;;;;;3.36;77.67;95520.22;4892102;29;20506;-73
2022/01/16 14:20:24;;;;;;;25.05;17.67;;;;;;;3.15;80.12;95515.72;4905976;29;20643;-74
2022/01/16 14:22:17;;;;;;;29.77;17.52;;;;;;;3.15;79.84;95512.34;4895748;29;20036;-74
2022/01/16 14:24:58;;;;;;;17.25;14.70;;;;;;;3.09;80.01;95505.13;4910027;29;20115;-73
2022/01/16 14:27:34;;;;;;;21.75;15.10;;;;;;;2.94;80.45;95501.94;4891606;29;20045;-73
2022/01/16 14:30:04;;;;;;;18.95;14.50;;;;;;;3.01;80.96;95504.88;4891624;29;20533;-73
2022/01/16 14:32:30;;;;;;;20.33;14.38;;;;;;;2.94;81.76;95503.69;4890920;29;20028;-74
2022/01/16 14:34:57;;;;;;;18.55;14.50;;;;;;;2.85;82.84;95505.19;4892655;29;20052;-74
2022/01/16 14:37:24;;;;;;;17.92;12.18;;;;;;;2.64;84.59;95501.59;4893431;29;20067;-73
2022/01/16 14:39:50;;;;;;;15.65;12.50;;;;;;;2.36;85.91;95501.91;4875816;29;20104;-73
2022/01/16 14:42:18;;;;;;;18.33;12.85;;;;;;;2.26;87.38;95506.03;4880896;29;20494;-74
2022/01/16 14:44:44;;;;;;;14.25;11.82;;;;;;;2.10;87.82;95493.50;4894910;29;20031;-74
2022/01/16 14:47:11;;;;;;;15.25;12.73;;;;;;;1.91;89.23;95488.03;4909241;29;20096;-74
2022/01/16 14:49:40;;;;;;;15.48;11.82;;;;;;;1.61;91.54;95485.03;4908875;29;20040;-74
2022/01/16 14:52:06;;;;;;;16.98;12.10;;;;;;;1.74;90.36;95490.91;4907657;29;20502;-73
2022/01/16 14:54:32;;;;;;;15.30;12.38;;;;;;;1.53;92.18;95488.91;4909232;29;20072;-74
2022/01/16 14:56:57;;;;;;;15.70;11.57;;;;;;;1.46;92.84;95482.56;4907328;29;20036;-74
2022/01/16 14:59:23;;;;;;;18.13;12.73;;;;;;;1.39;92.84;95470.31;4909193;29;20032;-74
2022/01/16 15:01:48;;;;;;;17.30;13.82;;;;;;;1.11;94.90;95476.44;4891391;29;20048;-74
2022/01/16 15:04:14;;;;;;;15.55;11.73;;;;;;;1.12;95.57;95467.88;4908991;29;20426;-74
2022/01/16 15:06:41;;;;;;;15.50;11.85;;;;;;;1.11;95.24;95461.16;4894887;29;20804;-74
2022/01/16 15:09:08;;;;;;;17.75;14.70;;;;;;;1.01;95.26;95465.22;4904944;29;20569;-72
2022/01/16 15:11:35;;;;;;;25.83;15.95;;;;;;;0.80;96.19;95470.00;4916593;29;20040;-73
2022/01/16 15:14:01;;;;;;;33.80;21.35;;;;;;;0.61;98.34;95477.16;4890884;29;20491;-74
2022/01/16 15:16:30;;;;;;;25.52;17.10;;;;;;;0.52;99.19;95470.91;4892593;29;20040;-77
2022/01/16 15:19:00;;;;;;;71.63;34.53;;;;;;;0.38;100.00;95471.00;4890429;29;20028;-76
2022/01/16 15:21:33;;;;;;;60.30;34.20;;;;;;;0.20;100.00;95469.56;4893716;29;20029;-77
2022/01/16 15:23:59;;;;;;;50.75;29.48;;;;;;;0.17;100.00;95479.94;4906369;29;20029;-76
2022/01/16 15:26:26;;;;;;;53.65;28.40;;;;;;;0.02;100.00;95477.53;4891891;29;20072;-76
2022/01/16 15:28:51;;;;;;;40.95;24.83;;;;;;;-0.07;100.00;95484.03;4891897;29;20482;-76
2022/01/16 15:31:17;;;;;;;36.50;24.10;;;;;;;-0.15;100.00;95481.09;4899764;29;20028;-77
2022/01/16 15:33:42;;;;;;;35.63;24.88;;;;;;;-0.24;100.00;95479.94;4927138;29;20028;-76
2022/01/16 15:36:07;;;;;;;27.83;20.33;;;;;;;-0.25;100.00;95485.94;4900178;29;20036;-76
2022/01/16 15:38:34;;;;;;;24.67;18.05;;;;;;;-0.31;100.00;95481.22;4907601;29;20025;-76
2022/01/16 15:41:01;;;;;;;23.88;18.35;;;;;;;-0.55;100.00;95488.56;4892127;29;20486;-75
2022/01/16 15:43:26;;;;;;;21.20;17.77;;;;;;;-0.79;100.00;95495.13;4891419;29;20024;-76
2022/01/16 15:45:56;;;;;;;29.27;20.02;;;;;;;-0.74;100.00;95485.47;4893506;29;20123;-76
2022/01/16 15:48:22;;;;;;;23.20;15.90;;;;;;;-0.77;100.00;95479.78;4908969;29;20067;-77
2022/01/16 15:50:48;;;;;;;23.05;15.07;;;;;;;-0.87;100.00;95484.59;4908454;29;20040;-77
2022/01/16 15:53:14;;;;;;;22.33;15.82;;;;;;;-0.84;100.00;95483.59;4891370;29;20534;-76
2022/01/16 15:55:39;;;;;;;26.75;17.02;;;;;;;-0.81;100.00;95478.31;4903460;29;20036;-76
2022/01/16 15:58:05;;;;;;;24.48;16.88;;;;;;;-0.83;100.00;95487.75;4907766;29;20040;-76
2022/01/16 16:00:33;;;;;;;18.20;13.80;;;;;;;-0.83;100.00;95483.47;4894790;29;20508;-76
2022/01/16 16:02:58;;;;;;;37.08;17.33;;;;;;;-0.90;100.00;95473.78;4893384;29;20477;-76
2022/01/16 16:05:24;;;;;;;26.17;16.38;;;;;;;-0.92;100.00;95476.41;4909470;29;20041;-76
2022/01/16 16:07:51;;;;;;;23.50;16.77;;;;;;;-0.89;100.00;95476.22;4910219;29;20020;-77
2022/01/16 16:10:18;;;;;;;20.05;14.20;;;;;;;-1.01;100.00;95476.94;4893019;29;20427;-76
2022/01/16 16:12:46;;;;;;;26.70;17.35;;;;;;;-0.91;100.00;95485.66;4925512;29;20028;-76
2022/01/16 16:15:12;;;;;;;33.78;23.02;;;;;;;-1.01;100.00;95476.09;4905332;29;20416;-76
2022/01/16 16:17:37;;;;;;;56.00;30.90;;;;;;;-1.04;100.00;95473.75;4898673;29;20036;-76
2022/01/16 16:20:04;;;;;;;58.92;31.23;;;;;;;-1.10;100.00;95474.91;4924151;29;20054;-76
2022/01/16 16:22:30;;;;;;;43.35;25.00;;;;;;;-1.15;100.00;95482.78;4924770;29;20036;-76
2022/01/16 16:24:55;;;;;;;37.85;22.20;;;;;;;-1.32;100.00;95485.50;4909964;29;20035;-76
2022/01/16 16:27:21;;;;;;;35.35;21.40;;;;;;;-1.28;100.00;95486.94;4908374;29;20030;-76
2022/01/16 16:29:49;;;;;;;30.35;19.77;;;;;;;-1.29;100.00;95481.94;4909293;29;20127;-76
2022/01/16 16:32:16;;;;;;;28.73;18.33;;;;;;;-1.34;100.00;95481.38;4906938;29;20466;-75
2022/01/16 16:34:42;;;;;;;28.05;20.58;;;;;;;-1.38;100.00;95477.41;4915948;29;20033;-77